createdAt,value
2019-01-24T00:00:01.058Z,-1.10
2019-01-24T00:02:29.788Z,-1.10
2019-01-24T00:04:58.449Z,-1.00
2019-01-24T00:07:27.123Z,-1.00
2019-01-24T00:09:56.075Z,-1.10
2019-01-24T00:14:53.074Z,-1.10
2019-01-24T00:17:21.746Z,-1.00
2019-01-24T00:19:50.398Z,-1.10
2019-01-24T00:22:19.066Z,-1.00
2019-01-24T00:24:47.788Z,-1.10
2019-01-24T00:27:16.505Z,-1.10
2019-01-24T00:29:45.167Z,-1.10
2019-01-24T00:32:13.831Z,-0.80
2019-01-24T00:37:10.765Z,-1.20
2019-01-24T00:39:39.529Z,-1.10
2019-01-24T00:42:08.218Z,-1.10
2019-01-24T00:44:37.169Z,-1.10
2019-01-24T00:47:05.813Z,-1.20
2019-01-24T00:49:34.713Z,-1.20
2019-01-24T00:52:03.466Z,-1.20
2019-01-24T00:57:00.413Z,-1.20
2019-01-24T00:59:29.092Z,-1.30
2019-01-24T01:01:57.811Z,-1.40
2019-01-24T01:04:29.772Z,-1.30
2019-01-24T01:06:56.874Z,-1.30
2019-01-24T01:09:25.613Z,-1.20
2019-01-24T01:11:54.272Z,-1.40
2019-01-24T01:14:22.951Z,-1.30
2019-01-24T01:19:19.880Z,-1.30
2019-01-24T01:21:48.528Z,-1.20
2019-01-24T01:24:17.184Z,-1.30
2019-01-24T01:26:46.280Z,-1.20
2019-01-24T01:29:14.951Z,-1.20
2019-01-24T01:31:43.634Z,-1.10
2019-01-24T01:34:12.340Z,-1.20
2019-01-24T01:39:10.201Z,-1.40
2019-01-24T01:41:38.849Z,-1.40
2019-01-24T01:44:07.494Z,-1.60
2019-01-24T01:46:36.178Z,-1.70
2019-01-24T01:49:05.109Z,-1.80
2019-01-24T01:51:33.864Z,-1.70
2019-01-24T01:54:02.535Z,-1.80
2019-01-24T01:56:31.524Z,-1.90
2019-01-24T02:01:28.521Z,-2.20
2019-01-24T02:03:57.202Z,-1.90
2019-01-24T02:06:25.911Z,-2.00
2019-01-24T02:08:54.698Z,-1.80
2019-01-24T02:11:23.624Z,-1.80
2019-01-24T02:13:52.543Z,-1.70
2019-01-24T02:16:21.392Z,-1.70
2019-01-24T02:18:50.236Z,-1.70
2019-01-24T02:23:47.174Z,-1.60
2019-01-24T02:26:15.856Z,-1.80
2019-01-24T02:28:44.533Z,-2.00
2019-01-24T02:31:13.211Z,-1.90
2019-01-24T02:33:41.863Z,-1.80
2019-01-24T02:36:10.544Z,-1.70
2019-01-24T02:38:39.204Z,-1.50
2019-01-24T02:43:36.209Z,-1.40
2019-01-24T02:46:04.919Z,-1.30
2019-01-24T02:48:33.611Z,-1.30
2019-01-24T02:51:02.289Z,-1.20
2019-01-24T02:53:30.939Z,-1.20
2019-01-24T02:55:59.591Z,-1.20
2019-01-24T02:58:28.309Z,-1.10
2019-01-24T03:00:56.961Z,-1.30
2019-01-24T03:05:54.492Z,-1.20
2019-01-24T03:08:23.297Z,-1.20
2019-01-24T03:10:51.941Z,-1.30
2019-01-24T03:13:20.654Z,-1.20
2019-01-24T03:15:49.329Z,-1.20
2019-01-24T03:18:17.996Z,-1.10
2019-01-24T03:20:46.657Z,-1.10
2019-01-24T03:23:15.441Z,-1.40
2019-01-24T03:28:12.398Z,-1.10
2019-01-24T03:30:41.086Z,-1.00
2019-01-24T03:33:09.801Z,-1.00
2019-01-24T03:35:38.661Z,-1.00
2019-01-24T03:38:07.342Z,-1.00
2019-01-24T03:40:35.998Z,-1.00
2019-01-24T03:43:04.640Z,-1.00
2019-01-24T03:48:01.663Z,-1.00
2019-01-24T03:50:30.325Z,-1.00
2019-01-24T03:52:58.983Z,-1.10
2019-01-24T03:55:27.646Z,-1.00
2019-01-24T03:57:56.346Z,-0.90
2019-01-24T04:00:25.284Z,-0.90
2019-01-24T04:02:54.144Z,-0.90
2019-01-24T04:05:22.905Z,-0.80
2019-01-24T04:10:20.983Z,-0.90
2019-01-24T04:12:49.765Z,-0.90
2019-01-24T04:15:23.365Z,-0.90
2019-01-24T04:17:52.128Z,-1.00
2019-01-24T04:20:21.155Z,-1.00
2019-01-24T04:22:49.999Z,-1.00
2019-01-24T04:25:18.669Z,-1.00
2019-01-24T04:27:47.462Z,-1.10
2019-01-24T04:32:45.532Z,-1.00
2019-01-24T04:35:19.657Z,-0.90
2019-01-24T04:37:45.014Z,-0.90
2019-01-24T04:40:15.249Z,-0.90
2019-01-24T04:42:43.996Z,-1.00
2019-01-24T04:45:13.947Z,-1.00
2019-01-24T04:47:42.639Z,-0.90
2019-01-24T04:50:13.022Z,-0.90
2019-01-24T04:55:11.515Z,-1.00
2019-01-24T04:57:40.165Z,-0.90
2019-01-24T05:00:17.530Z,-1.00
2019-01-24T05:02:46.184Z,-1.00
2019-01-24T05:05:14.923Z,-1.00
2019-01-24T05:07:43.569Z,-1.00
2019-01-24T05:10:12.222Z,-1.00
2019-01-24T05:12:40.964Z,-0.90
2019-01-24T05:15:09.615Z,-1.00
2019-01-24T05:20:07.484Z,-1.00
2019-01-24T05:22:36.138Z,-1.10
2019-01-24T05:25:06.385Z,-1.10
2019-01-24T05:27:35.033Z,-1.00
2019-01-24T05:30:04.570Z,-0.90
2019-01-24T05:32:33.292Z,-0.90
2019-01-24T05:35:02.037Z,-0.90
2019-01-24T05:37:30.809Z,-0.80
2019-01-24T05:42:27.753Z,-1.00
2019-01-24T05:44:56.407Z,-0.80
2019-01-24T05:47:25.146Z,-0.90
2019-01-24T05:49:53.800Z,-1.00
2019-01-24T05:52:22.493Z,-0.90
2019-01-24T05:54:51.164Z,-1.00
2019-01-24T05:57:19.876Z,-1.20
2019-01-24T06:02:16.862Z,-1.20
2019-01-24T06:04:45.786Z,-1.20
2019-01-24T06:07:14.448Z,-1.30
2019-01-24T06:09:43.110Z,-1.20
2019-01-24T06:12:11.772Z,-1.20
2019-01-24T06:14:40.438Z,-1.00
2019-01-24T06:17:09.087Z,-1.10
2019-01-24T06:19:37.753Z,-1.00
2019-01-24T06:24:34.760Z,-1.30
2019-01-24T06:27:03.424Z,-1.10
2019-01-24T06:29:32.117Z,-1.00
2019-01-24T06:32:00.763Z,-1.10
2019-01-24T06:34:29.423Z,-1.00
2019-01-24T06:36:58.069Z,-1.00
2019-01-24T06:39:26.716Z,-0.90
2019-01-24T06:44:24.005Z,-1.00
2019-01-24T06:46:52.954Z,-0.90
2019-01-24T06:49:21.705Z,-1.00
2019-01-24T06:51:50.460Z,-1.00
2019-01-24T06:54:19.104Z,-1.00
2019-01-24T06:56:48.008Z,-1.20
2019-01-24T06:59:16.952Z,-1.20
2019-01-24T07:01:45.669Z,-1.20
2019-01-24T07:06:42.946Z,-1.20
2019-01-24T07:09:11.615Z,-1.10
2019-01-24T07:11:40.586Z,-1.20
2019-01-24T07:14:09.440Z,-1.20
2019-01-24T07:16:38.357Z,-1.30
2019-01-24T07:19:07.119Z,-1.20
2019-01-24T07:21:35.798Z,-1.20
2019-01-24T07:24:04.499Z,-1.20
2019-01-24T07:29:01.549Z,-1.20
2019-01-24T07:31:30.212Z,-1.20
2019-01-24T07:33:58.863Z,-1.10
2019-01-24T07:36:27.773Z,-1.20
2019-01-24T07:38:56.411Z,-1.20
2019-01-24T07:41:25.068Z,-1.10
2019-01-24T07:43:53.773Z,-1.10
2019-01-24T07:46:22.429Z,-1.20
2019-01-24T07:51:19.402Z,-1.10
2019-01-24T07:53:48.052Z,-1.00
2019-01-24T07:56:16.785Z,-1.00
2019-01-24T07:58:45.753Z,-1.00
2019-01-24T08:01:14.405Z,-0.90
2019-01-24T08:03:43.056Z,-1.00
2019-01-24T08:06:11.731Z,-1.20
2019-01-24T08:11:08.914Z,-1.20
2019-01-24T08:13:37.581Z,-1.20
2019-01-24T08:16:06.238Z,-1.30
2019-01-24T08:18:34.955Z,-1.30
2019-01-24T08:21:03.620Z,-1.30
2019-01-24T08:23:32.274Z,-1.30
2019-01-24T08:26:01.022Z,-1.20
2019-01-24T08:28:29.686Z,-1.10
2019-01-24T08:33:26.624Z,-0.90
2019-01-24T08:35:55.349Z,-0.80
2019-01-24T08:38:24.011Z,-0.80
2019-01-24T08:40:52.684Z,-0.80
2019-01-24T08:43:21.345Z,-0.80
2019-01-24T08:45:49.994Z,-0.70
2019-01-24T08:48:18.670Z,-0.80
2019-01-24T08:50:47.319Z,-0.80
2019-01-24T08:55:44.686Z,-0.80
2019-01-24T08:58:13.424Z,-0.70
2019-01-24T09:00:42.086Z,-0.70
2019-01-24T09:03:12.469Z,-0.70
2019-01-24T09:05:41.214Z,-0.60
2019-01-24T09:08:09.871Z,-0.60
2019-01-24T09:10:39.343Z,-0.60
2019-01-24T09:15:37.128Z,-0.40
2019-01-24T09:18:06.412Z,0.00
2019-01-24T09:20:35.082Z,0.30
2019-01-24T09:23:03.805Z,0.50
2019-01-24T09:25:32.753Z,0.80
2019-01-24T09:28:01.428Z,1.00
2019-01-24T09:30:30.112Z,1.00
2019-01-24T09:32:58.870Z,1.20
2019-01-24T09:37:56.132Z,1.10
2019-01-24T09:40:24.806Z,1.00
2019-01-24T09:42:53.544Z,1.00
2019-01-24T09:45:24.021Z,1.00
2019-01-24T09:47:53.291Z,1.10
2019-01-24T09:50:22.907Z,1.10
2019-01-24T09:52:51.637Z,1.30
2019-01-24T09:55:20.360Z,1.40
2019-01-24T10:00:22.503Z,1.50
2019-01-24T10:02:51.140Z,1.50
2019-01-24T10:05:19.813Z,1.40
2019-01-24T10:07:48.469Z,1.50
2019-01-24T10:10:19.171Z,1.70
2019-01-24T10:12:47.815Z,2.00
2019-01-24T10:15:16.993Z,1.80
2019-01-24T10:17:45.654Z,2.10
2019-01-24T10:22:43.353Z,2.20
2019-01-24T10:25:26.288Z,2.20
2019-01-24T10:27:54.940Z,2.30
2019-01-24T10:30:23.733Z,2.50
2019-01-24T10:32:52.721Z,2.60
2019-01-24T10:35:21.391Z,2.70
2019-01-24T10:37:50.062Z,2.90
2019-01-24T10:40:20.930Z,3.00
2019-01-24T10:42:49.944Z,3.30
2019-01-24T10:47:47.277Z,3.50
2019-01-24T10:50:16.777Z,3.60
2019-01-24T10:52:45.438Z,3.60
2019-01-24T10:55:16.392Z,3.60
2019-01-24T10:57:45.235Z,3.40
2019-01-24T11:00:17.115Z,3.50
2019-01-24T11:02:45.782Z,3.70
2019-01-24T11:05:15.336Z,2.20
2019-01-24T11:10:13.029Z,3.50
2019-01-24T11:12:41.700Z,3.70
2019-01-24T11:15:13.120Z,3.70
2019-01-24T11:17:41.806Z,3.80
2019-01-24T11:20:12.043Z,3.90
2019-01-24T11:22:40.726Z,3.80
2019-01-24T11:25:12.102Z,3.60
2019-01-24T11:27:40.754Z,3.50
2019-01-24T11:32:38.489Z,3.60
2019-01-24T11:35:09.844Z,3.70
2019-01-24T11:37:38.492Z,4.00
2019-01-24T11:40:09.222Z,3.90
2019-01-24T11:42:37.873Z,4.00
2019-01-24T11:45:08.242Z,3.80
2019-01-24T11:47:36.957Z,3.90
2019-01-24T11:50:08.065Z,3.90
2019-01-24T11:55:05.878Z,3.70
2019-01-24T11:57:34.608Z,3.90
2019-01-24T12:00:03.361Z,3.90
2019-01-24T12:02:32.021Z,3.70
2019-01-24T12:05:00.757Z,3.60
2019-01-24T12:07:29.429Z,3.20
2019-01-24T12:09:58.094Z,3.20
2019-01-24T12:12:26.808Z,3.20
2019-01-24T12:17:24.808Z,3.10
2019-01-24T12:19:54.135Z,3.20
2019-01-24T12:22:22.792Z,3.10
2019-01-24T12:24:51.458Z,3.10
2019-01-24T12:27:20.387Z,3.00
2019-01-24T12:29:49.040Z,3.00
2019-01-24T12:32:17.785Z,3.00
2019-01-24T12:34:46.428Z,3.10
2019-01-24T12:39:43.375Z,3.00
2019-01-24T12:42:12.367Z,3.10
2019-01-24T12:44:41.029Z,3.20
2019-01-24T12:47:09.703Z,3.30
2019-01-24T12:49:38.719Z,3.30
2019-01-24T12:52:07.365Z,3.20
2019-01-24T12:54:36.026Z,3.20
2019-01-24T12:57:04.929Z,3.20
2019-01-24T13:02:01.964Z,3.10
2019-01-24T13:04:30.625Z,3.00
2019-01-24T13:06:59.282Z,2.90
2019-01-24T13:09:28.026Z,2.90
2019-01-24T13:11:56.687Z,2.90
2019-01-24T13:14:25.336Z,2.90
2019-01-24T13:16:54.244Z,2.50
2019-01-24T13:21:51.185Z,2.50
2019-01-24T13:24:19.941Z,2.50
2019-01-24T13:26:48.610Z,2.70
2019-01-24T13:29:17.276Z,2.70
2019-01-24T13:31:45.928Z,2.80
2019-01-24T13:34:14.592Z,2.80
2019-01-24T13:36:43.643Z,2.70
2019-01-24T13:39:12.356Z,2.70
2019-01-24T13:44:11.081Z,2.60
2019-01-24T13:46:40.638Z,2.70
2019-01-24T13:49:09.347Z,2.70
2019-01-24T13:51:38.005Z,2.60
2019-01-24T13:54:06.679Z,2.60
2019-01-24T13:56:35.330Z,2.60
2019-01-24T13:59:03.977Z,2.60
2019-01-24T14:01:32.680Z,2.60
2019-01-24T14:06:36.273Z,2.60
2019-01-24T14:09:08.710Z,2.50
2019-01-24T14:11:37.448Z,2.60
2019-01-24T14:14:06.488Z,2.60
2019-01-24T14:16:35.153Z,2.60
2019-01-24T14:19:03.818Z,2.60
2019-01-24T14:21:32.481Z,2.70
2019-01-24T14:24:01.141Z,2.30
2019-01-24T14:28:58.098Z,2.60
2019-01-24T14:31:26.745Z,2.80
2019-01-24T14:33:55.406Z,2.70
2019-01-24T14:36:25.467Z,2.70
2019-01-24T14:38:55.093Z,2.70
2019-01-24T14:41:23.741Z,2.80
2019-01-24T14:43:52.407Z,2.70
2019-01-24T14:46:21.586Z,2.70
2019-01-24T14:51:18.553Z,2.70
2019-01-24T14:53:47.214Z,2.80
2019-01-24T14:56:15.963Z,2.80
2019-01-24T14:58:44.624Z,2.80
2019-01-24T15:01:16.134Z,2.80
2019-01-24T15:03:44.788Z,2.60
2019-01-24T15:06:13.462Z,2.40
2019-01-24T15:11:10.397Z,2.40
2019-01-24T15:13:39.057Z,2.50
2019-01-24T15:16:07.720Z,2.40
2019-01-24T15:18:36.662Z,2.50
2019-01-24T15:21:05.342Z,2.50
2019-01-24T15:23:33.998Z,2.50
2019-01-24T15:26:02.672Z,2.50
2019-01-24T15:28:31.319Z,2.20
2019-01-24T15:33:28.445Z,2.60
2019-01-24T15:35:57.110Z,2.60
2019-01-24T15:38:25.760Z,2.60
2019-01-24T15:40:54.420Z,2.60
2019-01-24T15:43:23.076Z,2.50
2019-01-24T15:45:51.741Z,2.50
2019-01-24T15:48:20.392Z,2.50
2019-01-24T15:50:49.099Z,2.10
2019-01-24T15:55:46.436Z,2.30
2019-01-24T15:58:15.202Z,2.40
2019-01-24T16:00:43.866Z,2.40
2019-01-24T16:03:12.790Z,2.40
2019-01-24T16:05:41.444Z,2.40
2019-01-24T16:08:10.113Z,2.40
2019-01-24T16:10:38.816Z,2.40
2019-01-24T16:15:36.770Z,2.50
2019-01-24T16:18:08.057Z,2.40
2019-01-24T16:20:36.712Z,2.40
2019-01-24T16:23:05.714Z,2.40
2019-01-24T16:25:34.401Z,2.40
2019-01-24T16:28:03.094Z,2.50
2019-01-24T16:30:32.587Z,2.50
2019-01-24T16:33:01.519Z,2.30
2019-01-24T16:37:58.600Z,2.40
2019-01-24T16:40:27.743Z,2.30
2019-01-24T16:42:56.418Z,2.20
2019-01-24T16:45:26.720Z,2.20
2019-01-24T16:47:55.629Z,2.10
2019-01-24T16:50:24.757Z,2.10
2019-01-24T16:52:53.680Z,2.10
2019-01-24T16:55:22.342Z,2.00
2019-01-24T17:01:16.235Z,2.00
2019-01-24T17:03:44.990Z,1.90
2019-01-24T17:08:42.169Z,1.80
2019-01-24T17:11:10.807Z,1.90
2019-01-24T17:13:39.472Z,1.90
2019-01-24T17:16:08.125Z,1.90
2019-01-24T17:18:36.779Z,1.90
2019-01-24T17:21:05.569Z,1.80
2019-01-24T17:23:34.257Z,1.70
2019-01-24T17:26:03.922Z,1.70
2019-01-24T17:31:00.941Z,1.70
2019-01-24T17:33:29.596Z,1.70
2019-01-24T17:35:58.304Z,1.70
2019-01-24T17:38:26.972Z,1.70
2019-01-24T17:40:55.638Z,1.70
2019-01-24T17:43:24.373Z,1.60
2019-01-24T17:45:53.273Z,1.60
2019-01-24T17:50:50.364Z,1.40
2019-01-24T17:53:19.030Z,1.50
2019-01-24T17:55:47.687Z,1.40
2019-01-24T17:58:16.343Z,1.40
2019-01-24T18:00:52.837Z,1.30
2019-01-24T18:03:21.580Z,1.40
2019-01-24T18:05:50.590Z,1.30
2019-01-24T18:08:19.241Z,1.40
2019-01-24T18:10:47.890Z,1.30
2019-01-24T18:15:44.869Z,1.30
2019-01-24T18:18:14.688Z,1.30
2019-01-24T18:20:43.896Z,1.20
2019-01-24T18:23:12.713Z,1.20
2019-01-24T18:25:41.453Z,1.30
2019-01-24T18:28:11.690Z,1.20
2019-01-24T18:30:40.530Z,1.10
2019-01-24T18:35:37.626Z,1.10
2019-01-24T18:38:07.080Z,1.10
2019-01-24T18:40:35.796Z,1.10
2019-01-24T18:43:07.732Z,1.00
2019-01-24T18:45:43.036Z,1.10
2019-01-24T18:48:11.707Z,1.10
2019-01-24T18:50:40.476Z,1.00
2019-01-24T18:55:38.444Z,1.00
2019-01-24T19:00:41.452Z,1.00
2019-01-24T19:03:10.408Z,0.80
2019-01-24T19:05:40.435Z,0.80
2019-01-24T19:08:10.659Z,0.80
2019-01-24T19:10:39.556Z,0.60
2019-01-24T19:13:08.928Z,0.60
2019-01-24T19:15:38.849Z,0.60
2019-01-24T19:18:10.499Z,0.60
2019-01-24T19:23:07.445Z,0.50
2019-01-24T19:25:36.189Z,0.60
2019-01-24T19:28:06.269Z,0.70
2019-01-24T19:30:35.130Z,0.60
2019-01-24T19:33:03.957Z,0.60
2019-01-24T19:35:32.800Z,0.50
2019-01-24T19:38:01.829Z,0.50
2019-01-24T19:40:30.480Z,0.70
2019-01-24T19:45:27.851Z,0.60
2019-01-24T19:47:56.517Z,0.60
2019-01-24T19:50:27.621Z,0.60
2019-01-24T19:52:56.364Z,0.50
2019-01-24T19:55:25.058Z,0.50
2019-01-24T19:57:54.229Z,0.50
2019-01-24T20:00:24.677Z,0.50
2019-01-24T20:02:53.327Z,0.40
2019-01-24T20:07:50.390Z,0.40
2019-01-24T20:10:20.803Z,0.40
2019-01-24T20:12:49.458Z,0.40
2019-01-24T20:15:20.222Z,0.40
2019-01-24T20:17:49.612Z,0.50
2019-01-24T20:20:18.910Z,0.50
2019-01-24T20:22:47.573Z,0.50
2019-01-24T20:25:17.823Z,0.40
2019-01-24T20:30:17.451Z,0.20
2019-01-24T20:32:46.207Z,0.50
2019-01-24T20:35:23.214Z,0.50
2019-01-24T20:37:51.910Z,0.40
2019-01-24T20:40:21.258Z,0.40
2019-01-24T20:42:50.311Z,0.30
2019-01-24T20:45:18.978Z,0.30
2019-01-24T20:47:47.630Z,0.30
2019-01-24T20:52:44.591Z,0.30
2019-01-24T20:55:13.299Z,0.30
2019-01-24T20:57:42.032Z,0.30
2019-01-24T21:00:13.972Z,-0.10
2019-01-24T21:02:42.732Z,0.30
2019-01-24T21:05:11.988Z,0.30
2019-01-24T21:07:40.905Z,0.40
2019-01-24T21:10:12.404Z,0.30
2019-01-24T21:15:10.687Z,0.30
2019-01-24T21:17:39.350Z,0.40
2019-01-24T21:20:10.489Z,0.30
2019-01-24T21:22:39.148Z,0.20
2019-01-24T21:25:11.706Z,0.20
2019-01-24T21:27:39.917Z,0.20
2019-01-24T21:30:12.314Z,0.10
2019-01-24T21:32:40.965Z,0.20
2019-01-24T21:35:09.694Z,0.20
2019-01-24T21:40:07.879Z,0.10
2019-01-24T21:42:36.775Z,0.20
2019-01-24T21:45:06.297Z,0.20
2019-01-24T21:47:34.949Z,0.20
2019-01-24T21:50:03.866Z,0.10
2019-01-24T21:52:32.557Z,0.10
2019-01-24T21:55:01.459Z,0.00
2019-01-24T21:57:30.152Z,0.00
2019-01-24T22:02:27.080Z,0.00
2019-01-24T22:04:55.813Z,0.10
2019-01-24T22:07:24.451Z,0.10
2019-01-24T22:09:53.126Z,0.10
2019-01-24T22:12:21.787Z,0.10
2019-01-24T22:14:50.452Z,0.20
2019-01-24T22:17:19.132Z,0.20
2019-01-24T22:22:16.224Z,0.10
2019-01-24T22:24:44.882Z,0.10
2019-01-24T22:27:13.616Z,-0.10
2019-01-24T22:29:42.260Z,0.00
2019-01-24T22:32:10.967Z,0.00
2019-01-24T22:34:39.617Z,0.10
2019-01-24T22:37:08.363Z,0.10
2019-01-24T22:39:37.012Z,0.00
2019-01-24T22:44:34.271Z,0.00
2019-01-24T22:47:02.953Z,0.00
2019-01-24T22:49:31.621Z,-0.10
2019-01-24T22:52:00.292Z,-0.10
2019-01-24T22:54:29.033Z,-0.10
2019-01-24T22:56:57.729Z,-0.10
2019-01-24T22:59:26.456Z,-0.10
2019-01-24T23:04:26.555Z,-0.10
2019-01-24T23:06:55.239Z,0.00
2019-01-24T23:09:23.896Z,0.00
2019-01-24T23:11:52.957Z,-0.10
2019-01-24T23:14:21.949Z,-0.10
2019-01-24T23:16:50.669Z,-0.10
2019-01-24T23:19:19.390Z,-0.10
2019-01-24T23:21:49.545Z,-0.20
2019-01-24T23:26:46.663Z,-0.20
2019-01-24T23:29:15.340Z,-0.20
2019-01-24T23:31:44.044Z,-0.40
2019-01-24T23:34:12.713Z,-0.30
2019-01-24T23:36:42.489Z,-0.20
2019-01-24T23:39:11.281Z,-0.30
2019-01-24T23:41:39.929Z,-0.30
2019-01-24T23:44:11.119Z,-0.30
2019-01-24T23:49:08.096Z,-0.40
2019-01-24T23:51:36.823Z,-0.40
2019-01-24T23:54:05.661Z,-0.60
2019-01-24T23:56:34.370Z,-0.60
2019-01-24T23:59:03.057Z,-0.60
